Time;durP1;ratioP1;P1;durP2;ratioP2;P2;SDS_P1;SDS_P2;PMS_P1;PMS_P2;Temp;Humidity;BMP_temperature;BMP_pressure;BME280_temperature;BME280_humidity;BME280_pressure;Samples;Min_cycle;Max_cycle;Signal;HPM_P1;HPM_P2
2022/08/20 00:00:13;;;;;;;3.20;3.00;;;;;;;25.50;74.21;97320.59;5070159;28;20261;-31
2022/08/20 00:03:03;;;;;;;3.40;3.20;;;;;;;25.50;74.12;97332.56;5072075;28;20246;-31
2022/08/20 00:05:35;;;;;;;3.20;3.00;;;;;;;25.43;73.76;97313.63;5058360;28;20809;-31
2022/08/20 00:08:05;;;;;;;3.37;3.07;;;;;;;25.49;74.11;97323.97;5071968;28;20232;-31
2022/08/20 00:10:33;;;;;;;3.30;3.10;;;;;;;25.49;73.85;97331.69;5069411;28;20764;-31
2022/08/20 00:12:59;;;;;;;3.70;3.40;;;;;;;25.50;73.85;97337.72;5069175;28;20649;-31
2022/08/20 00:15:28;;;;;;;3.03;2.83;;;;;;;25.49;73.99;97334.28;5070319;28;20388;-31
2022/08/20 00:17:55;;;;;;;3.40;3.10;;;;;;;25.49;74.09;97339.41;5069478;28;20237;-31
2022/08/20 00:20:24;;;;;;;3.23;2.93;;;;;;;25.49;73.76;97334.28;5059375;28;20200;-31
2022/08/20 00:22:51;;;;;;;2.90;2.70;;;;;;;25.50;73.96;97336.03;5067585;28;20644;-31
2022/08/20 00:25:17;;;;;;;3.43;3.13;;;;;;;25.49;73.67;97326.56;5061583;28;20673;-31
2022/08/20 00:27:44;;;;;;;3.27;3.07;;;;;;;25.50;73.87;97330.88;5069846;28;20206;-31
2022/08/20 00:30:11;;;;;;;3.60;3.30;;;;;;;25.46;73.98;97315.38;5065673;28;20499;-31
2022/08/20 00:33:04;;;;;;;3.20;3.00;;;;;;;25.50;74.00;97324.84;5064386;28;20224;-31
2022/08/20 00:35:32;;;;;;;3.10;2.90;;;;;;;25.50;73.71;97324.84;5070392;28;20200;-31
2022/08/20 00:37:59;;;;;;;3.37;3.10;;;;;;;25.49;73.94;97326.56;5066933;28;20740;-31
2022/08/20 00:40:33;;;;;;;3.17;2.97;;;;;;;25.48;73.66;97324.84;5064576;28;20227;-31
2022/08/20 00:43:01;;;;;;;3.00;2.80;;;;;;;25.49;73.92;97328.28;5069751;28;20622;-31
2022/08/20 00:45:29;;;;;;;3.40;3.10;;;;;;;25.49;73.79;97325.72;5069707;28;20270;-32
2022/08/20 00:47:55;;;;;;;3.27;3.00;;;;;;;25.48;74.04;97327.41;5067841;28;20234;-31
2022/08/20 00:50:34;;;;;;;2.90;2.70;;;;;;;25.47;73.69;97333.41;5073500;28;20667;-31
2022/08/20 00:53:02;;;;;;;3.43;3.23;;;;;;;25.42;73.61;97314.47;5073909;28;20231;-31
2022/08/20 00:55:29;;;;;;;3.07;2.87;;;;;;;25.48;73.76;97326.53;5068058;28;20295;-31
2022/08/20 00:57:59;;;;;;;3.33;3.07;;;;;;;25.41;73.85;97314.47;5073025;28;20212;-32
2022/08/20 01:00:32;;;;;;;3.17;2.97;;;;;;;25.48;73.72;97327.41;5069608;28;20304;-31
2022/08/20 01:02:59;;;;;;;3.40;3.10;;;;;;;25.48;74.10;97324.84;5064866;28;20250;-31
2022/08/20 01:05:26;;;;;;;3.00;2.80;;;;;;;25.48;73.76;97323.97;5066429;28;20274;-31
2022/08/20 01:07:55;;;;;;;2.80;2.60;;;;;;;25.49;73.90;97328.28;5065292;28;20204;-31
2022/08/20 01:10:26;;;;;;;2.90;2.70;;;;;;;25.49;73.87;97323.97;5055434;28;20734;-31
2022/08/20 01:12:54;;;;;;;3.03;2.67;;;;;;;25.48;73.58;97322.25;5068063;28;20216;-31
2022/08/20 01:15:26;;;;;;;3.30;3.00;;;;;;;25.47;73.62;97317.97;5065882;28;20197;-31
2022/08/20 01:17:57;;;;;;;3.10;2.90;;;;;;;25.48;73.61;97321.38;5066495;28;20701;-31
2022/08/20 01:20:26;;;;;;;3.03;2.83;;;;;;;25.49;73.58;97330.84;5065842;28;20300;-31
2022/08/20 01:23:26;;;;;;;2.83;2.63;;;;;;;25.48;73.91;97321.38;5070169;28;20247;-31
2022/08/20 01:26:22;;;;;;;3.10;2.90;;;;;;;25.48;73.77;97331.69;5072121;28;20565;-31
2022/08/20 01:28:53;;;;;;;3.10;2.90;;;;;;;25.48;73.77;97324.84;5069127;28;20251;-32
2022/08/20 01:31:27;;;;;;;3.03;2.83;;;;;;;25.47;73.81;97319.69;5071655;28;20748;-31
2022/08/20 01:33:55;;;;;;;2.80;2.60;;;;;;;25.49;73.71;97333.44;5070743;28;20247;-31
2022/08/20 01:36:29;;;;;;;3.17;2.87;;;;;;;25.48;73.87;97327.41;5072914;28;20203;-31
2022/08/20 01:38:56;;;;;;;2.73;2.53;;;;;;;25.48;73.55;97327.41;5070871;28;20274;-31
2022/08/20 01:41:44;;;;;;;3.20;3.00;;;;;;;25.48;73.88;97324.84;5067448;28;20229;-31
2022/08/20 01:44:11;;;;;;;3.00;2.80;;;;;;;25.48;73.85;97323.97;5065382;28;20318;-31
2022/08/20 01:46:45;;;;;;;2.70;2.50;;;;;;;25.48;73.74;97317.13;5072118;28;20224;-31
2022/08/20 01:49:21;;;;;;;2.70;2.50;;;;;;;25.45;73.73;97313.63;5070793;28;20220;-31
2022/08/20 01:51:49;;;;;;;2.67;2.47;;;;;;;25.46;73.79;97312.81;5072945;28;20583;-31
2022/08/20 01:54:16;;;;;;;2.80;2.60;;;;;;;25.47;73.76;97325.69;5072208;28;20236;-31
2022/08/20 01:57:01;;;;;;;2.93;2.73;;;;;;;25.45;73.75;97316.22;5071385;28;20232;-31
2022/08/20 01:59:28;;;;;;;2.90;2.70;;;;;;;25.47;73.88;97319.69;5051757;28;20305;-31
2022/08/20 02:01:56;;;;;;;2.60;2.40;;;;;;;25.47;73.62;97324.81;5072263;28;20253;-31
2022/08/20 02:04:23;;;;;;;3.03;2.63;;;;;;;25.42;73.62;97309.34;5064021;28;20200;-31
2022/08/20 02:06:53;;;;;;;2.70;2.50;;;;;;;25.42;73.71;97317.06;5061086;28;20359;-31
2022/08/20 02:09:26;;;;;;;2.93;2.73;;;;;;;25.47;73.46;97328.28;5070879;28;20701;-31
2022/08/20 02:11:53;;;;;;;3.03;2.73;;;;;;;25.48;73.86;97323.97;5069183;28;20228;-31
2022/08/20 02:14:20;;;;;;;2.93;2.70;;;;;;;25.43;73.79;97323.06;5071299;28;20228;-31
2022/08/20 02:16:46;;;;;;;2.77;2.57;;;;;;;25.48;73.38;97329.13;5069865;28;20729;-31
2022/08/20 02:19:26;;;;;;;2.80;2.60;;;;;;;25.47;73.77;97319.69;5071856;28;20775;-31
2022/08/20 02:21:55;;;;;;;2.60;2.40;;;;;;;25.48;73.40;97321.38;5071207;28;20683;-32
2022/08/20 02:24:21;;;;;;;2.87;2.67;;;;;;;25.46;73.65;97312.81;5054686;28;20296;-31
2022/08/20 02:26:48;;;;;;;2.90;2.70;;;;;;;25.48;73.72;97326.53;5069445;28;20231;-31
2022/08/20 02:29:15;;;;;;;2.90;2.70;;;;;;;25.47;73.79;97314.53;5071841;28;20251;-31
2022/08/20 02:31:43;;;;;;;2.67;2.47;;;;;;;25.47;73.50;97322.25;5063131;28;20232;-31
2022/08/20 02:34:29;;;;;;;2.30;2.20;;;;;;;25.48;73.66;97321.38;5061315;28;20197;-31
2022/08/20 02:36:56;;;;;;;2.80;2.60;;;;;;;25.48;73.40;97321.38;5067508;28;20671;-31
2022/08/20 02:39:22;;;;;;;2.60;2.40;;;;;;;25.47;73.47;97320.56;5072210;28;20620;-32
2022/08/20 02:41:49;;;;;;;2.70;2.50;;;;;;;25.47;73.57;97315.41;5071195;28;20236;-31
2022/08/20 02:44:17;;;;;;;2.73;2.53;;;;;;;25.47;73.79;97323.13;5071862;28;20322;-31
2022/08/20 02:46:44;;;;;;;2.60;2.40;;;;;;;25.47;73.80;97322.25;5070929;28;20260;-31
2022/08/20 02:49:10;;;;;;;2.60;2.40;;;;;;;25.44;73.82;97317.06;5071713;28;20666;-31
2022/08/20 02:51:37;;;;;;;2.50;2.30;;;;;;;25.44;73.60;97317.94;5071223;28;20294;-31
2022/08/20 02:54:03;;;;;;;2.30;2.20;;;;;;;25.47;73.61;97322.25;5069758;28;20200;-31
2022/08/20 02:56:30;;;;;;;2.77;2.57;;;;;;;25.47;nan;97322.25;5073901;28;20742;-31
2022/08/20 02:58:57;;;;;;;2.70;2.50;;;;;;;25.47;73.38;97320.56;5074532;28;20227;-31
2022/08/20 03:01:23;;;;;;;2.60;2.40;;;;;;;25.47;73.50;97322.25;5073582;28;20200;-31
2022/08/20 03:03:50;;;;;;;2.60;2.40;;;;;;;25.47;73.39;97322.25;5069668;28;20257;-31
2022/08/20 03:06:16;;;;;;;2.97;2.77;;;;;;;25.47;73.37;97324.81;5068797;28;20248;-31
2022/08/20 03:08:43;;;;;;;2.60;2.40;;;;;;;25.47;73.78;97327.41;5073262;28;20384;-31
2022/08/20 03:11:10;;;;;;;2.60;2.40;;;;;;;25.45;73.32;97316.22;5071185;28;20716;-31
2022/08/20 03:13:37;;;;;;;2.87;2.67;;;;;;;25.48;73.37;97334.25;5070769;28;20228;-31
2022/08/20 03:16:04;;;;;;;2.37;2.27;;;;;;;25.47;73.49;97319.69;5070498;28;20212;-31
2022/08/20 03:18:33;;;;;;;2.30;2.20;;;;;;;25.47;73.58;97324.81;5075316;28;20262;-31
2022/08/20 03:21:00;;;;;;;2.67;2.47;;;;;;;25.46;73.51;97325.69;5071032;28;20288;-31
2022/08/20 03:23:27;;;;;;;2.60;2.40;;;;;;;25.47;73.63;97329.97;5070983;28;20196;-31
2022/08/20 03:25:54;;;;;;;2.70;2.47;;;;;;;25.47;73.31;97327.41;5070680;28;20364;-31
2022/08/20 03:28:21;;;;;;;2.67;2.47;;;;;;;25.42;73.54;97318.75;5070515;28;20273;-31
2022/08/20 03:30:47;;;;;;;2.70;2.50;;;;;;;25.47;74.16;97333.41;5062227;28;20232;-31
2022/08/20 03:33:15;;;;;;;2.30;2.20;;;;;;;25.48;73.30;97331.69;5065330;28;20242;-31
2022/08/20 03:35:41;;;;;;;2.63;2.43;;;;;;;25.48;73.24;97334.25;5070414;28;20625;-32
2022/08/20 03:38:09;;;;;;;2.23;2.13;;;;;;;25.48;73.67;97347.13;5064926;28;20776;-31
2022/08/20 03:40:36;;;;;;;2.33;2.23;;;;;;;25.46;73.56;97325.69;5071022;28;20642;-31
2022/08/20 03:43:07;;;;;;;2.70;2.50;;;;;;;25.46;73.45;97317.97;5067711;28;20295;-31
2022/08/20 03:45:35;;;;;;;2.60;2.40;;;;;;;25.47;73.72;97325.69;5065716;28;20708;-31
2022/08/20 03:48:03;;;;;;;2.67;2.47;;;;;;;25.47;73.75;97327.41;5067815;28;20288;-32
2022/08/20 03:50:30;;;;;;;2.70;2.50;;;;;;;25.46;73.53;97329.09;5072480;28;20736;-31
2022/08/20 03:52:57;;;;;;;2.27;2.17;;;;;;;25.47;73.37;97346.28;5070704;28;20232;-31
2022/08/20 03:55:23;;;;;;;2.30;2.20;;;;;;;25.46;73.67;97346.25;5069312;28;20351;-31
2022/08/20 03:57:52;;;;;;;2.60;2.40;;;;;;;25.46;73.65;97341.97;5069898;28;20687;-32
2022/08/20 04:00:35;;;;;;;2.43;2.23;;;;;;;25.46;73.45;97349.69;5070474;28;20200;-31
2022/08/20 04:03:03;;;;;;;2.70;2.53;;;;;;;25.47;73.72;97355.69;5070901;28;20661;-31
2022/08/20 04:05:30;;;;;;;2.40;2.30;;;;;;;25.46;73.60;97349.69;5060535;28;20834;-31
2022/08/20 04:07:57;;;;;;;2.40;2.30;;;;;;;25.46;73.56;97353.97;5068820;28;20258;-31
2022/08/20 04:10:28;;;;;;;2.30;2.20;;;;;;;25.46;73.41;97356.56;5070093;28;20408;-32
2022/08/20 04:12:55;;;;;;;2.43;2.23;;;;;;;25.44;73.50;97346.25;5070385;28;20679;-31
2022/08/20 04:15:23;;;;;;;2.40;2.30;;;;;;;25.43;73.67;97349.66;5069796;28;20295;-31
2022/08/20 04:17:50;;;;;;;2.20;2.10;;;;;;;25.46;73.39;97359.97;5070020;28;20199;-31
2022/08/20 04:20:21;;;;;;;2.30;2.20;;;;;;;25.46;73.61;97361.72;5070100;28;20211;-31
2022/08/20 04:22:52;;;;;;;2.53;2.33;;;;;;;25.45;73.23;97357.38;5066927;28;20258;-31
2022/08/20 04:25:25;;;;;;;2.47;2.30;;;;;;;25.47;73.71;97356.56;5070016;28;20255;-31
2022/08/20 04:27:52;;;;;;;2.47;2.27;;;;;;;25.46;73.39;97357.41;5069857;28;20239;-31
2022/08/20 04:30:21;;;;;;;2.50;2.40;;;;;;;25.46;73.62;97359.97;5069784;28;20660;-31
2022/08/20 04:32:48;;;;;;;2.70;2.50;;;;;;;25.43;73.27;97354.78;5069788;28;20223;-31
2022/08/20 04:35:16;;;;;;;2.47;2.30;;;;;;;25.46;73.38;97357.41;5066833;28;20293;-31
2022/08/20 04:37:46;;;;;;;2.40;2.30;;;;;;;25.47;73.52;97373.72;5069180;28;20250;-31
2022/08/20 04:43:03;;;;;;;2.30;2.20;;;;;;;25.46;73.51;97369.44;5068653;28;20236;-31
2022/08/20 04:45:31;;;;;;;2.23;2.13;;;;;;;25.46;73.23;97361.72;5068253;28;20235;-32
2022/08/20 04:48:04;;;;;;;2.70;2.50;;;;;;;25.46;73.60;97365.13;5068792;28;20291;-31
2022/08/20 04:50:34;;;;;;;2.70;2.50;;;;;;;25.45;73.64;97368.56;5068584;28;20196;-31
2022/08/20 04:53:05;;;;;;;2.60;2.40;;;;;;;25.44;73.55;97371.97;5068491;28;20644;-32
2022/08/20 04:55:33;;;;;;;2.30;2.20;;;;;;;25.46;73.31;97375.41;5065285;28;20257;-31
2022/08/20 04:58:19;;;;;;;3.27;3.07;;;;;;;25.43;73.45;97385.66;5068636;28;20626;-32
2022/08/20 05:00:49;;;;;;;9.10;8.30;;;;;;;25.46;74.81;97383.13;5068685;28;20734;-31
2022/08/20 05:03:16;;;;;;;12.50;11.30;;;;;;;24.79;75.49;97277.72;5066011;28;20204;-32
2022/08/20 05:05:43;;;;;;;14.20;12.80;;;;;;;25.46;76.04;97390.84;5070825;28;20742;-31
2022/08/20 05:08:11;;;;;;;15.83;14.07;;;;;;;25.47;76.83;97389.16;5068637;28;20690;-31
2022/08/20 05:10:45;;;;;;;15.50;14.00;;;;;;;25.47;77.05;97395.19;5065592;28;20203;-32
2022/08/20 05:13:12;;;;;;;16.03;14.40;;;;;;;25.45;77.33;97394.28;5067154;28;20238;-32
2022/08/20 05:15:38;;;;;;;16.97;15.27;;;;;;;25.45;77.16;97402.00;5057048;28;20295;-31
2022/08/20 05:18:06;;;;;;;18.20;16.27;;;;;;;25.41;77.67;97391.66;5054610;28;20674;-31
2022/08/20 05:20:37;;;;;;;19.73;17.63;;;;;;;25.43;77.94;97398.53;5057407;28;20205;-32
2022/08/20 05:23:04;;;;;;;19.80;17.80;;;;;;;25.45;78.28;97403.69;5056854;28;20247;-31
2022/08/20 05:25:31;;;;;;;20.57;18.47;;;;;;;25.44;78.23;97400.28;5059494;28;20232;-31
2022/08/20 05:27:59;;;;;;;20.67;18.67;;;;;;;25.45;78.44;97403.69;5055868;28;20708;-31
2022/08/20 05:30:32;;;;;;;21.10;18.90;;;;;;;25.44;78.71;97407.13;5052146;28;20240;-31
2022/08/20 05:32:59;;;;;;;21.53;19.43;;;;;;;25.36;78.70;97390.72;5056528;28;20204;-32
2022/08/20 05:35:26;;;;;;;21.10;19.03;;;;;;;25.43;78.50;97411.41;5042775;28;20231;-31
2022/08/20 05:37:53;;;;;;;20.90;18.90;;;;;;;25.43;79.03;97407.97;5062656;28;20228;-31
2022/08/20 05:40:21;;;;;;;22.83;20.53;;;;;;;25.39;78.90;97404.50;5057118;28;20733;-32
2022/08/20 05:42:48;;;;;;;22.67;20.37;;;;;;;25.43;79.33;97408.81;5056761;28;20201;-31
2022/08/20 05:45:16;;;;;;;22.80;20.50;;;;;;;25.42;79.26;97412.25;5060153;28;20323;-31
2022/08/20 05:47:43;;;;;;;22.07;19.93;;;;;;;25.42;79.58;97416.53;5068244;28;20220;-31
2022/08/20 05:50:12;;;;;;;22.60;20.30;;;;;;;25.38;79.48;97405.34;5071616;28;20292;-31
2022/08/20 05:52:48;;;;;;;22.87;20.57;;;;;;;25.42;79.58;97419.97;5063616;28;20213;-31
2022/08/20 05:55:15;;;;;;;22.03;19.83;;;;;;;25.39;79.43;97412.22;5060814;28;20655;-31
2022/08/20 05:57:42;;;;;;;22.37;20.17;;;;;;;25.40;79.65;97424.22;5059602;28;20641;-32
2022/08/20 06:00:10;;;;;;;22.60;20.40;;;;;;;25.41;80.04;97414.81;5060542;28;20331;-32
2022/08/20 06:05:22;;;;;;;22.63;20.37;;;;;;;25.40;80.06;97419.09;5063441;28;21739;-31
2022/08/20 06:07:49;;;;;;;23.53;20.77;;;;;;;25.40;80.07;97425.97;5071356;28;20255;-31
2022/08/20 06:10:20;;;;;;;22.27;20.03;;;;;;;25.39;79.91;97426.78;5074909;28;20535;-31
2022/08/20 06:12:46;;;;;;;22.70;20.67;;;;;;;25.39;79.88;97429.34;5074118;28;20204;-32
2022/08/20 06:15:13;;;;;;;22.87;20.60;;;;;;;25.37;80.06;97429.34;5068253;28;20231;-32
2022/08/20 06:17:40;;;;;;;23.17;20.87;;;;;;;25.38;80.02;97425.06;5074702;28;20228;-31
2022/08/20 06:20:08;;;;;;;23.13;20.73;;;;;;;25.37;79.87;97420.78;5070570;28;20278;-32
2022/08/20 06:22:35;;;;;;;22.30;20.03;;;;;;;25.30;80.27;97413.78;5060115;28;20307;-32
2022/08/20 06:25:01;;;;;;;22.33;20.03;;;;;;;25.33;80.42;97426.69;5063157;28;20208;-32
2022/08/20 06:27:28;;;;;;;22.27;20.17;;;;;;;25.37;80.25;97428.50;5062036;28;20357;-31
2022/08/20 06:29:55;;;;;;;21.47;19.27;;;;;;;25.36;79.79;97425.03;5060109;28;20294;-31
2022/08/20 06:32:23;;;;;;;21.70;19.00;;;;;;;25.37;80.45;97431.06;5060016;28;20307;-31
2022/08/20 06:35:02;;;;;;;21.03;19.03;;;;;;;25.36;80.30;97427.63;5060311;28;20211;-31
2022/08/20 06:37:30;;;;;;;18.73;16.77;;;;;;;25.35;79.91;97427.59;5062229;28;20201;-32
2022/08/20 06:40:05;;;;;;;19.10;17.27;;;;;;;25.37;80.13;97443.94;5057742;28;20234;-31
2022/08/20 06:42:32;;;;;;;19.47;17.57;;;;;;;25.35;79.90;97435.31;5063111;28;20204;-32
2022/08/20 06:44:59;;;;;;;20.10;17.90;;;;;;;25.33;79.77;97429.28;5060125;28;20710;-32
2022/08/20 06:47:25;;;;;;;22.73;18.37;;;;;;;25.37;80.17;97431.06;5063133;28;20600;-32
2022/08/20 06:49:52;;;;;;;19.10;17.20;;;;;;;25.35;79.77;97427.59;5062663;28;20316;-31
2022/08/20 06:52:19;;;;;;;18.03;16.20;;;;;;;25.36;79.84;97429.31;5060744;28;20208;-31
2022/08/20 06:55:00;;;;;;;18.33;16.43;;;;;;;25.22;80.14;97408.53;5063848;28;20686;-32
2022/08/20 06:57:27;;;;;;;17.53;15.83;;;;;;;25.35;79.58;97428.47;5062148;28;20291;-31
2022/08/20 06:59:54;;;;;;;18.47;16.63;;;;;;;25.35;79.45;97433.63;5058855;28;20303;-32
2022/08/20 07:02:22;;;;;;;18.47;16.53;;;;;;;25.36;79.90;97426.75;5060098;28;20270;-32
2022/08/20 07:04:56;;;;;;;17.80;16.10;;;;;;;25.32;79.40;97430.09;5062117;28;20208;-31
2022/08/20 07:07:22;;;;;;;17.20;15.40;;;;;;;25.35;79.58;97431.06;5061940;28;20342;-31
2022/08/20 07:09:50;;;;;;;16.33;14.73;;;;;;;25.32;80.03;97427.53;5063496;28;20228;-31
2022/08/20 07:12:17;;;;;;;16.40;14.80;;;;;;;25.30;79.10;97430.09;5058200;28;20294;-31
2022/08/20 07:14:43;;;;;;;16.20;14.70;;;;;;;25.34;78.98;97443.88;5062690;28;20208;-31
2022/08/20 07:17:10;;;;;;;15.67;14.20;;;;;;;25.34;78.94;97446.47;5061199;28;20285;-31
2022/08/20 07:19:37;;;;;;;15.23;13.77;;;;;;;25.34;79.06;97439.59;5061692;28;20235;-32
2022/08/20 07:22:05;;;;;;;14.40;13.10;;;;;;;25.34;79.17;97444.72;5060155;28;20215;-31
2022/08/20 07:24:31;;;;;;;15.50;13.97;;;;;;;25.35;78.98;97446.47;5060852;28;20232;-31
2022/08/20 07:27:03;;;;;;;16.37;14.40;;;;;;;25.36;78.99;97449.91;5061210;28;20227;-32
2022/08/20 07:32:33;;;;;;;14.70;13.27;;;;;;;25.35;78.95;97454.19;5062187;28;20315;-31
2022/08/20 07:32:35;;;;;;;14.73;13.20;;;;;;;25.35;79.12;97455.91;5061508;28;20204;-32
2022/08/20 07:35:16;;;;;;;14.10;12.27;;;;;;;25.35;78.95;97456.78;5055758;28;20208;-32
2022/08/20 07:37:45;;;;;;;13.83;12.47;;;;;;;25.35;79.33;97459.34;5061430;28;20256;-31
2022/08/20 07:40:18;;;;;;;14.73;13.17;;;;;;;25.35;79.19;97459.34;5057632;28;20259;-32
2022/08/20 07:42:51;;;;;;;14.30;12.80;;;;;;;25.34;79.00;97460.16;5057401;28;20239;-31
2022/08/20 07:45:17;;;;;;;13.30;11.70;;;;;;;25.35;78.65;97463.63;5058734;28;20632;-31
2022/08/20 07:47:44;;;;;;;14.33;12.93;;;;;;;25.35;79.27;97463.63;5061163;28;20431;-31
2022/08/20 07:50:12;;;;;;;14.40;12.53;;;;;;;25.32;78.79;97471.25;5061067;28;20323;-31
2022/08/20 07:52:39;;;;;;;13.30;11.80;;;;;;;25.34;79.09;97474.75;5060476;28;20302;-31
2022/08/20 07:55:08;;;;;;;13.30;11.90;;;;;;;25.34;78.90;97477.34;5061062;28;20224;-31
2022/08/20 07:57:35;;;;;;;12.50;11.30;;;;;;;25.31;78.84;97472.13;5060767;28;20310;-31
2022/08/20 08:00:07;;;;;;;13.50;10.63;;;;;;;25.26;78.94;97469.47;5057319;28;20319;-32
2022/08/20 08:02:34;;;;;;;11.40;10.27;;;;;;;25.26;79.05;97464.34;5058445;28;20227;-32
2022/08/20 08:05:00;;;;;;;11.23;10.10;;;;;;;25.33;78.82;97485.88;5061599;28;20267;-32
2022/08/20 08:07:27;;;;;;;11.10;10.00;;;;;;;25.12;78.96;97460.69;5060737;28;20222;-32
2022/08/20 08:09:54;;;;;;;11.07;10.00;;;;;;;25.31;79.13;97480.69;5056217;28;20319;-32
2022/08/20 08:12:21;;;;;;;11.20;10.10;;;;;;;25.19;79.13;97459.94;5055873;28;20204;-31
2022/08/20 08:14:48;;;;;;;11.13;9.87;;;;;;;25.31;79.43;97484.97;5044598;28;20212;-31
2022/08/20 08:17:15;;;;;;;10.17;9.10;;;;;;;25.24;79.10;97472.84;5061113;28;20679;-31
2022/08/20 08:19:45;;;;;;;11.30;9.60;;;;;;;25.31;79.32;97477.25;5061703;28;20329;-32
2022/08/20 08:22:12;;;;;;;10.60;9.60;;;;;;;25.31;79.48;97484.97;5040462;28;20295;-32
2022/08/20 08:24:40;;;;;;;10.90;9.37;;;;;;;25.31;79.40;97493.53;5061409;28;20247;-32
2022/08/20 08:27:22;;;;;;;9.13;8.33;;;;;;;25.30;78.39;97491.81;5061373;28;20628;-32
2022/08/20 08:29:48;;;;;;;8.90;8.00;;;;;;;25.31;77.44;97495.28;5063610;28;20224;-31
2022/08/20 08:32:16;;;;;;;8.77;7.97;;;;;;;25.30;77.39;97502.13;5061385;28;20216;-32
2022/08/20 08:34:46;;;;;;;8.50;7.77;;;;;;;25.30;76.60;97496.09;5060091;28;20207;-31
2022/08/20 08:37:13;;;;;;;8.37;7.57;;;;;;;25.30;76.42;97491.81;5058426;28;20323;-31
2022/08/20 08:39:40;;;;;;;9.53;7.83;;;;;;;25.29;76.30;97490.09;5062878;28;20832;-31
2022/08/20 08:42:25;;;;;;;8.00;7.30;;;;;;;25.30;76.36;97488.38;5061160;28;20715;-32
2022/08/20 08:44:53;;;;;;;8.40;7.60;;;;;;;25.26;76.57;97492.63;5062960;28;20679;-31
2022/08/20 08:47:29;;;;;;;7.87;7.17;;;;;;;25.30;76.11;97493.53;5044550;28;20286;-31
2022/08/20 08:49:56;;;;;;;8.30;7.57;;;;;;;25.24;76.43;97483.16;5044513;28;20760;-32
2022/08/20 08:52:28;;;;;;;7.40;6.60;;;;;;;25.30;76.16;97501.22;5045898;28;20243;-32
2022/08/20 08:55:02;;;;;;;7.77;7.17;;;;;;;25.25;76.13;97497.75;5062289;28;20290;-31
2022/08/20 08:57:29;;;;;;;7.13;6.53;;;;;;;25.31;75.57;97508.97;5060917;28;20232;-31
2022/08/20 09:00:16;;;;;;;8.43;6.53;;;;;;;25.25;76.13;97493.44;5063131;28;20270;-31
2022/08/20 09:03:00;;;;;;;7.37;6.67;;;;;;;25.31;75.56;97503.84;5047263;28;20212;-31
2022/08/20 09:05:54;;;;;;;7.77;6.13;;;;;;;25.31;75.41;97508.97;5062046;28;20686;-31
2022/08/20 09:08:26;;;;;;;7.27;6.60;;;;;;;25.25;75.87;97488.31;5049235;28;20315;-31
2022/08/20 09:10:52;;;;;;;6.93;6.23;;;;;;;25.26;75.95;97486.63;5064364;28;20295;-31
2022/08/20 09:13:19;;;;;;;7.50;6.80;;;;;;;25.32;75.71;97497.91;5065149;28;20474;-31
2022/08/20 09:15:45;;;;;;;6.60;6.00;;;;;;;25.26;75.34;97489.19;5066759;28;20240;-31
2022/08/20 09:18:12;;;;;;;7.80;6.47;;;;;;;25.30;75.66;97511.53;5065439;28;20285;-31
2022/08/20 09:20:38;;;;;;;6.70;6.13;;;;;;;25.32;75.53;97518.47;5063540;28;20307;-31
2022/08/20 09:23:05;;;;;;;8.17;6.20;;;;;;;25.33;75.67;97515.06;5059194;28;20615;-31
2022/08/20 09:25:32;;;;;;;7.00;6.40;;;;;;;25.33;75.06;97506.47;5061764;28;20240;-32
2022/08/20 09:27:58;;;;;;;6.63;6.03;;;;;;;25.34;75.14;97508.22;5064190;28;20310;-31
2022/08/20 09:30:25;;;;;;;6.33;5.83;;;;;;;25.33;75.21;97504.75;5062422;28;20876;-31
2022/08/20 09:32:52;;;;;;;6.77;6.10;;;;;;;25.33;75.11;97515.06;5061360;28;20213;-31
2022/08/20 09:35:19;;;;;;;6.83;6.23;;;;;;;25.30;75.44;97503.81;5064238;28;20243;-32
2022/08/20 09:37:46;;;;;;;6.10;5.57;;;;;;;25.34;75.27;97511.63;5062689;28;20291;-32
2022/08/20 09:40:16;;;;;;;6.33;5.83;;;;;;;25.34;74.86;97508.22;5063595;28;20219;-31
2022/08/20 09:42:47;;;;;;;5.87;5.37;;;;;;;25.28;75.23;97497.81;5060853;28;20270;-32
2022/08/20 09:45:14;;;;;;;5.97;5.47;;;;;;;25.28;75.30;97501.22;5058656;28;20228;-32
2022/08/20 09:47:40;;;;;;;6.30;5.80;;;;;;;25.35;75.05;97518.53;5061219;28;20339;-31
2022/08/20 09:50:29;;;;;;;6.10;5.60;;;;;;;25.33;74.82;97509.03;5058563;28;20208;-32
2022/08/20 09:52:57;;;;;;;6.10;5.60;;;;;;;25.29;75.11;97505.53;5061293;28;20636;-31
2022/08/20 09:55:31;;;;;;;6.27;5.67;;;;;;;25.33;74.82;97519.31;5047028;28;20743;-31
2022/08/20 09:57:59;;;;;;;5.97;5.47;;;;;;;25.34;74.98;97505.63;5059572;28;20696;-32
2022/08/20 10:00:25;;;;;;;5.77;5.27;;;;;;;24.70;74.94;97398.38;5062303;28;20231;-31
2022/08/20 10:02:52;;;;;;;6.40;5.80;;;;;;;25.29;74.78;97504.66;5063182;28;20306;-31
2022/08/20 10:05:19;;;;;;;5.90;5.40;;;;;;;25.34;75.10;97513.34;5061077;28;20303;-32
2022/08/20 10:07:45;;;;;;;5.83;5.33;;;;;;;25.35;74.91;97515.06;5062334;28;20247;-31
2022/08/20 10:10:12;;;;;;;6.07;5.53;;;;;;;25.28;74.54;97500.38;5062816;28;20258;-32
2022/08/20 10:12:42;;;;;;;5.93;5.43;;;;;;;25.35;74.58;97509.94;5063770;28;20208;-31
2022/08/20 10:15:09;;;;;;;5.93;5.43;;;;;;;25.34;74.72;97503.91;5060203;28;20280;-31
2022/08/20 10:17:38;;;;;;;5.67;5.17;;;;;;;25.34;74.73;97501.34;5062735;28;20300;-31
2022/08/20 10:20:05;;;;;;;5.33;4.93;;;;;;;25.31;74.48;97506.41;5059194;28;20256;-32
2022/08/20 10:22:32;;;;;;;5.97;5.47;;;;;;;25.35;74.71;97512.50;5062616;28;20673;-31
2022/08/20 10:24:58;;;;;;;5.70;5.20;;;;;;;25.33;74.54;97499.63;5061130;28;20239;-32
2022/08/20 10:27:25;;;;;;;5.33;4.93;;;;;;;25.33;74.63;97502.19;5062025;28;20247;-31
2022/08/20 10:29:51;;;;;;;5.33;4.93;;;;;;;25.33;74.67;97506.47;5059780;28;20339;-31
2022/08/20 10:32:18;;;;;;;5.50;5.10;;;;;;;25.34;74.64;97506.47;5060567;28;20300;-32
2022/08/20 10:34:46;;;;;;;5.90;5.30;;;;;;;25.33;74.48;97502.19;5062952;28;20204;-31
2022/08/20 10:37:17;;;;;;;5.63;5.13;;;;;;;25.34;74.65;97505.63;5062147;28;20211;-32
2022/08/20 10:39:44;;;;;;;5.07;4.57;;;;;;;25.34;74.27;97503.91;5062041;28;20607;-31
2022/08/20 10:42:10;;;;;;;5.57;5.10;;;;;;;25.33;74.28;97504.75;5057068;28;20578;-31
2022/08/20 10:44:37;;;;;;;5.80;5.30;;;;;;;25.34;74.30;97506.47;5062181;28;20290;-31
2022/08/20 10:47:26;;;;;;;5.17;4.77;;;;;;;25.33;74.22;97507.34;5059018;28;20354;-31
2022/08/20 10:49:56;;;;;;;5.43;5.03;;;;;;;25.34;74.16;97508.22;5061216;28;20268;-32
2022/08/20 10:52:22;;;;;;;4.60;4.30;;;;;;;25.34;74.27;97513.34;5061347;28;20275;-32
2022/08/20 10:54:49;;;;;;;5.10;4.70;;;;;;;25.32;74.28;97508.19;5063080;28;20607;-31
2022/08/20 10:57:20;;;;;;;4.60;4.30;;;;;;;25.32;74.54;97512.44;5062502;28;20274;-31
2022/08/20 10:59:48;;;;;;;5.30;4.90;;;;;;;25.33;74.79;97511.59;5058655;28;20718;-31
2022/08/20 11:02:15;;;;;;;6.20;4.83;;;;;;;25.33;74.53;97509.91;5059980;28;20288;-32
2022/08/20 11:04:42;;;;;;;5.17;4.57;;;;;;;25.32;74.36;97508.19;5062442;28;20210;-32
2022/08/20 11:07:29;;;;;;;5.03;4.63;;;;;;;25.34;74.20;97508.22;5058900;28;20299;-31
2022/08/20 11:10:16;;;;;;;4.77;4.37;;;;;;;25.33;74.37;97509.03;5058991;28;20571;-31
2022/08/20 11:12:43;;;;;;;4.73;4.33;;;;;;;25.34;74.27;97532.22;5061662;28;20680;-31
2022/08/20 11:15:12;;;;;;;4.77;4.43;;;;;;;25.35;74.00;97515.06;5059048;28;20291;-32
2022/08/20 11:17:39;;;;;;;4.43;4.13;;;;;;;25.34;74.15;97510.78;5060249;28;20638;-31
2022/08/20 11:20:07;;;;;;;5.30;4.90;;;;;;;25.33;74.32;97517.63;5059009;28;20318;-32
2022/08/20 11:22:34;;;;;;;5.00;4.60;;;;;;;25.30;74.08;97499.53;5060583;28;20236;-32
2022/08/20 11:25:00;;;;;;;4.20;3.90;;;;;;;25.33;74.18;97504.75;5061424;28;20211;-31
2022/08/20 11:27:37;;;;;;;4.63;4.33;;;;;;;25.32;74.42;97492.75;5060652;28;20300;-33
2022/08/20 11:30:06;;;;;;;5.00;4.60;;;;;;;25.32;74.57;97490.19;5059170;28;20226;-32
2022/08/20 11:32:32;;;;;;;4.70;4.30;;;;;;;25.34;74.02;97495.34;5058606;28;20371;-31
2022/08/20 11:34:59;;;;;;;5.10;4.70;;;;;;;25.33;74.35;97491.91;5058433;28;20295;-31
2022/08/20 11:37:26;;;;;;;4.37;4.00;;;;;;;25.33;73.85;97484.19;5061721;28;20302;-32
2022/08/20 11:39:52;;;;;;;4.80;4.40;;;;;;;25.32;74.09;97490.19;5031834;28;20252;-31
2022/08/20 11:42:19;;;;;;;5.07;4.33;;;;;;;25.32;74.10;97482.47;5073717;28;20200;-31
2022/08/20 11:44:46;;;;;;;4.97;4.60;;;;;;;25.33;74.29;97484.19;5072367;28;20228;-31